Time;durP1;ratioP1;P1;durP2;ratioP2;P2;SDS_P1;SDS_P2;PMS_P1;PMS_P2;Temp;Humidity;BMP_temperature;BMP_pressure;BME280_temperature;BME280_humidity;BME280_pressure;Samples;Min_cycle;Max_cycle;Signal;HPM_P1;HPM_P2
2022/01/28 00:04:47;;;;;;;6.75;1.85;;;11.00;90.90;;;;;;5033375;28;20033;-63
2022/01/28 00:07:13;;;;;;;8.55;1.85;;;11.00;90.80;;;;;;5033184;28;20032;-61
2022/01/28 00:09:38;;;;;;;6.55;2.03;;;10.90;90.90;;;;;;5031747;28;20029;-59
2022/01/28 00:12:05;;;;;;;8.90;2.55;;;10.90;90.80;;;;;;5033298;28;20522;-59
2022/01/28 00:15:20;;;;;;;6.82;1.92;;;10.90;90.80;;;;;;5032800;28;20467;-64
2022/01/28 00:36:46;;;;;;;7.28;2.55;;;10.70;90.60;;;;;;5033085;28;20136;-62
2022/01/28 00:39:12;;;;;;;7.38;2.38;;;10.70;90.50;;;;;;5032849;28;20029;-66
2022/01/28 00:41:37;;;;;;;7.25;2.35;;;10.70;90.50;;;;;;5032526;28;20036;-64
2022/01/28 00:44:03;;;;;;;8.90;2.42;;;10.70;90.60;;;;;;5032856;28;20047;-60
2022/01/28 00:46:29;;;;;;;8.45;2.63;;;10.60;90.60;;;;;;5032661;28;20072;-62
2022/01/28 00:48:56;;;;;;;10.80;2.22;;;10.60;90.60;;;;;;5033302;28;20558;-64
2022/01/28 00:51:22;;;;;;;8.30;2.28;;;10.60;90.60;;;;;;5032730;28;20428;-64
2022/01/28 00:53:48;;;;;;;7.65;2.72;;;10.60;90.70;;;;;;5032709;28;20017;-64
2022/01/28 00:56:13;;;;;;;10.40;2.75;;;10.60;90.60;;;;;;5032529;28;20113;-65
2022/01/28 00:58:39;;;;;;;8.05;2.22;;;10.60;90.70;;;;;;5032567;28;20457;-60
2022/01/28 01:01:04;;;;;;;10.23;3.00;;;10.50;90.60;;;;;;5032641;28;20033;-65
2022/01/28 01:03:30;;;;;;;7.65;2.60;;;10.50;90.70;;;;;;5032949;28;20104;-64
2022/01/28 01:05:55;;;;;;;8.65;2.72;;;10.50;90.90;;;;;;5032723;28;20105;-60
2022/01/28 01:08:21;;;;;;;14.77;3.15;;;10.50;90.70;;;;;;5032551;28;20478;-66
2022/01/28 01:10:46;;;;;;;10.38;2.88;;;10.50;90.70;;;;;;5032240;28;20467;-63
2022/01/28 01:13:12;;;;;;;9.00;2.65;;;10.40;90.70;;;;;;5032487;28;20047;-64
2022/01/28 01:15:42;;;;;;;8.30;3.25;;;10.40;90.60;;;;;;5032451;28;20029;-61
2022/01/28 01:18:16;;;;;;;10.57;2.58;;;10.40;90.70;;;;;;5032498;28;20041;-62
2022/01/28 01:23:14;;;;;;;9.93;3.25;;;10.40;90.60;;;;;;5032431;28;20121;-66
2022/01/28 01:25:46;;;;;;;10.93;3.05;;;10.40;90.60;;;;;;5034161;28;20033;-60
2022/01/28 01:28:13;;;;;;;12.02;2.78;;;10.30;90.80;;;;;;5036224;28;20029;-60
2022/01/28 01:30:41;;;;;;;11.38;2.42;;;10.30;90.70;;;;;;5035839;28;20021;-62
2022/01/28 01:33:08;;;;;;;8.43;2.65;;;10.30;90.70;;;;;;5036138;28;20030;-65
2022/01/28 01:35:33;;;;;;;7.70;2.80;;;10.30;90.70;;;;;;5035782;28;20029;-66
2022/01/28 01:37:59;;;;;;;11.63;2.38;;;10.30;90.70;;;;;;5035867;28;20385;-65
2022/01/28 01:40:27;;;;;;;11.70;2.47;;;10.30;90.80;;;;;;5038628;28;20040;-66
2022/01/28 01:43:06;;;;;;;7.00;2.50;;;10.20;90.70;;;;;;5038580;28;20025;-66
2022/01/28 01:53:26;;;;;;;8.75;2.80;;;10.20;90.60;;;;;;5035513;28;20040;-66
2022/01/28 01:55:51;;;;;;;9.75;2.45;;;10.20;90.70;;;;;;5035432;28;20026;-66
2022/01/28 01:58:24;;;;;;;13.13;2.83;;;10.10;90.70;;;;;;5035102;28;20037;-64
2022/01/28 02:00:49;;;;;;;8.70;2.70;;;10.10;90.70;;;;;;5035497;28;20025;-64
2022/01/28 02:03:15;;;;;;;8.55;2.80;;;10.10;90.70;;;;;;5035027;28;20034;-65
2022/01/28 02:05:41;;;;;;;10.00;3.00;;;10.10;90.70;;;;;;5035441;28;20037;-64
2022/01/28 02:08:06;;;;;;;13.60;2.95;;;10.10;90.70;;;;;;5035105;28;20021;-64
2022/01/28 02:10:34;;;;;;;9.02;2.90;;;10.00;90.80;;;;;;5035123;28;20013;-65
2022/01/28 02:12:59;;;;;;;6.43;2.67;;;10.10;91.00;;;;;;5035175;28;20471;-65
2022/01/28 02:15:25;;;;;;;12.38;4.18;;;10.10;91.00;;;;;;5035245;28;20078;-63
2022/01/28 02:17:51;;;;;;;9.25;2.00;;;10.00;90.90;;;;;;5034748;28;20072;-66
2022/01/28 02:20:30;;;;;;;6.25;2.08;;;10.00;90.90;;;;;;5035233;28;20088;-66
2022/01/28 02:22:56;;;;;;;9.57;2.47;;;10.00;91.00;;;;;;5034733;28;20105;-66
2022/01/28 02:25:27;;;;;;;11.15;2.30;;;10.00;91.00;;;;;;5034841;28;20100;-59
2022/01/28 02:27:54;;;;;;;6.68;2.03;;;10.00;90.90;;;;;;5034755;28;20104;-66
2022/01/28 02:30:20;;;;;;;7.05;2.60;;;9.90;91.00;;;;;;5035037;28;20025;-65
2022/01/28 02:32:48;;;;;;;9.02;2.55;;;9.90;90.90;;;;;;5034782;28;20440;-62
2022/01/28 02:35:14;;;;;;;7.15;2.80;;;9.90;90.90;;;;;;5034946;28;20108;-64
2022/01/28 02:37:39;;;;;;;10.50;2.85;;;9.90;90.90;;;;;;5034357;28;20134;-66
2022/01/28 02:40:06;;;;;;;6.85;2.83;;;9.80;90.80;;;;;;5034740;28;20074;-65
2022/01/28 02:42:52;;;;;;;8.60;3.08;;;9.90;90.80;;;;;;5034852;28;20022;-66
2022/01/28 02:45:26;;;;;;;9.48;3.95;;;9.80;90.90;;;;;;5034464;28;20083;-62
2022/01/28 02:47:57;;;;;;;9.70;3.30;;;9.80;90.80;;;;;;5034818;28;20037;-64
2022/01/28 02:50:26;;;;;;;12.43;3.95;;;9.80;90.80;;;;;;5034442;28;20025;-66
2022/01/28 02:53:02;;;;;;;10.52;3.05;;;9.80;90.80;;;;;;5034227;28;20037;-59
2022/01/28 02:55:30;;;;;;;12.13;3.67;;;9.80;91.00;;;;;;5034680;28;20031;-65
2022/01/28 02:58:14;;;;;;;11.35;4.20;;;9.70;90.80;;;;;;5034296;28;20033;-66
2022/01/28 03:00:40;;;;;;;11.80;4.75;;;9.70;90.80;;;;;;5034318;28;20025;-66
2022/01/28 03:03:07;;;;;;;12.30;4.40;;;9.70;90.80;;;;;;5034158;28;20029;-66
2022/01/28 03:05:34;;;;;;;10.90;4.03;;;9.70;90.80;;;;;;5033988;28;20026;-65
2022/01/28 03:08:04;;;;;;;10.38;4.47;;;9.70;90.70;;;;;;5034281;28;20031;-66
2022/01/28 03:15:26;;;;;;;12.93;4.65;;;9.60;90.80;;;;;;5034076;28;20033;-66
2022/01/28 03:18:07;;;;;;;13.40;4.10;;;9.60;90.80;;;;;;5033745;28;20037;-66
2022/01/28 03:20:44;;;;;;;11.43;5.22;;;9.50;90.80;;;;;;5033785;28;20546;-66
2022/01/28 03:23:11;;;;;;;13.07;4.53;;;9.50;90.80;;;;;;5033911;28;20021;-67
2022/01/28 03:25:41;;;;;;;10.20;4.53;;;9.50;90.90;;;;;;5034020;28;20025;-65
2022/01/28 03:28:07;;;;;;;10.13;3.97;;;9.50;90.90;;;;;;5033494;28;20108;-66
2022/01/28 03:30:33;;;;;;;10.30;4.38;;;9.40;90.90;;;;;;5033860;28;20060;-66
2022/01/28 03:32:58;;;;;;;11.30;4.57;;;9.40;90.80;;;;;;5033946;28;20037;-65
2022/01/28 03:35:24;;;;;;;7.88;3.72;;;9.40;90.90;;;;;;5033363;28;20018;-66
2022/01/28 03:37:58;;;;;;;11.68;4.05;;;9.40;90.80;;;;;;5033815;28;20506;-66
2022/01/28 03:40:24;;;;;;;9.00;3.40;;;9.40;90.90;;;;;;5033325;28;20025;-66
2022/01/28 03:42:50;;;;;;;10.60;3.90;;;9.40;91.30;;;;;;5033801;28;20029;-63
2022/01/28 03:45:15;;;;;;;10.60;4.50;;;9.40;91.00;;;;;;5033367;28;20529;-67
2022/01/28 03:47:41;;;;;;;9.52;4.05;;;9.40;91.20;;;;;;5033062;28;20037;-66
2022/01/28 03:50:07;;;;;;;11.32;3.95;;;9.30;91.00;;;;;;5033138;28;20097;-66
2022/01/28 03:52:33;;;;;;;11.32;3.80;;;9.30;91.00;;;;;;5033624;28;20026;-64
2022/01/28 03:54:58;;;;;;;8.05;3.67;;;9.30;91.10;;;;;;5033239;28;20030;-65
2022/01/28 03:57:24;;;;;;;9.18;4.38;;;9.30;91.00;;;;;;5033413;28;20020;-66
2022/01/28 03:59:49;;;;;;;11.43;4.38;;;9.30;91.10;;;;;;5033551;28;20547;-60
2022/01/28 04:02:20;;;;;;;11.98;4.55;;;9.30;91.10;;;;;;5033384;28;20391;-60
2022/01/28 04:12:53;;;;;;;7.72;4.15;;;9.20;91.30;;;;;;5033108;28;20038;-62
2022/01/28 04:17:49;;;;;;;6.65;4.22;;;9.10;91.10;;;;;;5032612;28;20033;-60
2022/01/28 04:20:15;;;;;;;11.23;4.15;;;9.10;91.10;;;;;;5032735;28;20033;-61
2022/01/28 04:22:41;;;;;;;9.52;4.40;;;9.20;91.10;;;;;;5033136;28;20025;-59
2022/01/28 04:25:07;;;;;;;7.88;3.38;;;9.10;91.10;;;;;;5032872;28;20045;-61
2022/01/28 04:27:32;;;;;;;10.77;4.40;;;9.10;91.10;;;;;;5032928;28;20430;-60
2022/01/28 04:29:58;;;;;;;10.35;4.90;;;9.10;91.20;;;;;;5032892;28;20026;-60
2022/01/28 04:32:26;;;;;;;9.35;4.35;;;9.10;91.20;;;;;;5032552;28;20029;-59
2022/01/28 04:34:53;;;;;;;10.32;4.40;;;9.10;91.20;;;;;;5032977;28;20035;-60
2022/01/28 04:39:57;;;;;;;9.98;4.13;;;9.00;91.10;;;;;;5031618;28;20379;-59
2022/01/28 04:58:15;;;;;;;12.23;4.15;;;8.90;91.30;;;;;;5032976;28;20029;-60
2022/01/28 05:01:14;;;;;;;11.57;4.80;;;8.90;91.30;;;;;;5035069;28;20029;-60
2022/01/28 05:09:42;;;;;;;11.27;3.75;;;8.90;91.50;;;;;;5036388;28;20079;-59
2022/01/28 05:27:35;;;;;;;10.00;4.75;;;8.80;91.60;;;;;;5036250;28;20029;-65
2022/01/28 05:30:01;;;;;;;13.10;4.45;;;8.80;91.80;;;;;;5036023;28;20079;-60
2022/01/28 05:32:27;;;;;;;13.20;5.03;;;8.80;91.80;;;;;;5034235;28;20108;-64
2022/01/28 05:34:52;;;;;;;11.35;4.38;;;8.80;91.80;;;;;;5036125;28;20033;-66
2022/01/28 05:37:18;;;;;;;10.23;3.50;;;8.70;91.80;;;;;;5035746;28;20148;-59
2022/01/28 05:39:43;;;;;;;12.07;4.80;;;8.70;91.90;;;;;;5035781;28;20089;-62
2022/01/28 05:42:09;;;;;;;8.35;3.70;;;8.70;91.90;;;;;;5036465;28;20036;-65
2022/01/28 05:44:34;;;;;;;12.10;4.95;;;8.70;91.90;;;;;;5049877;28;20033;-65
2022/01/28 05:47:03;;;;;;;12.48;4.55;;;8.70;91.90;;;;;;5043246;28;20450;-60
2022/01/28 05:49:29;;;;;;;13.70;5.07;;;8.70;92.00;;;;;;5042230;28;20024;-60
2022/01/28 05:51:55;;;;;;;9.80;4.40;;;8.70;92.10;;;;;;5054204;28;20041;-59
2022/01/28 05:54:20;;;;;;;14.10;4.35;;;8.70;92.10;;;;;;5052883;28;20032;-61
2022/01/28 05:56:46;;;;;;;15.10;4.07;;;8.70;92.10;;;;;;5054058;28;20473;-66
2022/01/28 05:59:12;;;;;;;13.50;4.57;;;8.60;92.10;;;;;;5054640;28;20552;-60
2022/01/28 06:01:37;;;;;;;14.75;4.88;;;8.60;92.10;;;;;;5047361;28;20029;-62
2022/01/28 06:04:03;;;;;;;11.63;4.07;;;8.70;92.20;;;;;;5045764;28;20486;-59
2022/01/28 06:06:30;;;;;;;9.20;4.82;;;8.60;92.20;;;;;;5035183;28;20021;-64
2022/01/28 06:08:56;;;;;;;12.00;4.38;;;8.60;92.10;;;;;;5035373;28;20045;-65
2022/01/28 06:11:23;;;;;;;14.90;4.53;;;8.60;92.10;;;;;;5036298;28;20033;-60
2022/01/28 06:13:50;;;;;;;11.15;4.50;;;8.60;92.20;;;;;;5036705;28;20391;-65
2022/01/28 06:16:17;;;;;;;13.73;4.72;;;8.60;92.20;;;;;;5046554;28;20104;-60
2022/01/28 06:18:44;;;;;;;12.02;5.43;;;8.60;92.30;;;;;;5052850;28;20045;-60
2022/01/28 06:21:10;;;;;;;14.07;5.60;;;8.60;92.20;;;;;;5052639;28;20490;-66
2022/01/28 06:23:36;;;;;;;13.52;5.65;;;8.90;91.40;;;;;;5041444;28;20489;-60
2022/01/28 06:26:02;;;;;;;14.27;5.78;;;8.90;91.30;;;;;;5041927;28;20545;-59
2022/01/28 06:28:28;;;;;;;14.85;5.63;;;8.90;91.20;;;;;;5038084;28;20390;-64
2022/01/28 06:30:54;;;;;;;12.82;5.88;;;9.00;90.80;;;;;;5040448;28;20467;-64
2022/01/28 06:33:21;;;;;;;16.52;6.50;;;9.10;90.60;;;;;;5037792;28;20394;-61
2022/01/28 06:35:46;;;;;;;15.95;5.72;;;9.00;90.60;;;;;;5048176;28;20032;-67
2022/01/28 06:38:12;;;;;;;17.92;5.88;;;9.00;90.70;;;;;;5048549;28;20036;-60
2022/01/28 06:40:38;;;;;;;16.70;6.32;;;9.00;90.80;;;;;;5041932;28;20026;-63
2022/01/28 06:43:07;;;;;;;13.23;6.07;;;8.90;90.90;;;;;;5037181;28;20055;-65
2022/01/28 06:45:33;;;;;;;16.50;5.60;;;8.80;91.50;;;;;;5038363;28;20071;-62
2022/01/28 06:47:58;;;;;;;18.25;5.32;;;8.60;92.40;;;;;;5039939;28;20045;-61
2022/01/28 06:50:24;;;;;;;14.10;4.75;;;8.50;92.70;;;;;;5038575;28;20026;-63
2022/01/28 06:52:50;;;;;;;20.80;5.13;;;8.60;92.80;;;;;;5041366;28;20381;-64
2022/01/28 06:55:16;;;;;;;17.05;5.55;;;8.50;92.60;;;;;;5044647;28;20041;-60
2022/01/28 06:57:42;;;;;;;14.15;5.22;;;8.50;93.00;;;;;;5042706;28;20061;-61
2022/01/28 07:00:09;;;;;;;15.57;4.50;;;8.50;93.00;;;;;;5044174;28;21127;-62
2022/01/28 07:02:35;;;;;;;13.48;5.55;;;8.50;93.20;;;;;;5053041;28;20474;-63
2022/01/28 07:05:01;;;;;;;15.70;5.53;;;8.60;92.70;;;;;;5051893;28;20021;-64
2022/01/28 07:07:27;;;;;;;19.23;5.70;;;8.70;92.10;;;;;;5046846;28;20028;-65
2022/01/28 07:09:53;;;;;;;13.10;4.97;;;8.80;91.80;;;;;;5036358;28;20059;-60
2022/01/28 07:12:20;;;;;;;17.80;5.97;;;8.70;91.70;;;;;;5045719;28;20029;-62
2022/01/28 07:14:47;;;;;;;13.23;5.07;;;8.60;92.20;;;;;;5043286;28;20025;-58
2022/01/28 07:17:12;;;;;;;13.52;5.40;;;8.60;92.60;;;;;;5032314;28;20036;-61
2022/01/28 07:19:38;;;;;;;13.98;5.15;;;8.80;91.80;;;;;;5044868;28;20033;-59
2022/01/28 07:22:04;;;;;;;13.15;6.05;;;8.60;92.00;;;;;;5037117;28;20026;-60
2022/01/28 07:24:30;;;;;;;12.88;5.00;;;8.60;92.30;;;;;;5050725;28;20074;-59
2022/01/28 07:26:56;;;;;;;13.35;5.35;;;8.50;92.30;;;;;;5044354;28;20022;-59
2022/01/28 07:29:27;;;;;;;16.67;5.15;;;8.50;92.40;;;;;;5051540;28;20025;-62
2022/01/28 07:31:52;;;;;;;16.23;5.07;;;8.50;92.50;;;;;;5053699;28;20032;-61
2022/01/28 07:34:18;;;;;;;11.85;5.25;;;8.40;92.70;;;;;;5053471;28;20025;-65
2022/01/28 07:36:43;;;;;;;13.30;5.28;;;8.40;92.80;;;;;;5053667;28;20047;-65
2022/01/28 07:39:09;;;;;;;13.45;4.88;;;8.40;92.80;;;;;;5053282;28;20367;-65
2022/01/28 07:41:36;;;;;;;11.93;5.50;;;8.40;92.90;;;;;;5052103;28;20025;-66
2022/01/28 07:44:02;;;;;;;13.80;5.15;;;8.40;93.00;;;;;;5051257;28;20025;-64
2022/01/28 07:46:28;;;;;;;12.25;5.70;;;8.40;93.10;;;;;;5052062;28;20047;-66
2022/01/28 07:48:54;;;;;;;14.75;5.47;;;8.40;93.10;;;;;;5053252;28;20017;-66
2022/01/28 07:51:19;;;;;;;15.57;5.13;;;8.40;93.00;;;;;;5053198;28;20504;-66
2022/01/28 07:53:45;;;;;;;16.63;5.75;;;8.40;93.00;;;;;;5053269;28;20032;-66
2022/01/28 07:56:12;;;;;;;14.18;5.47;;;8.40;93.00;;;;;;5052944;28;20029;-66
2022/01/28 07:58:37;;;;;;;12.18;4.93;;;8.50;93.10;;;;;;5052159;28;20021;-60
2022/01/28 08:01:03;;;;;;;12.27;5.47;;;8.50;93.00;;;;;;5037673;28;20034;-66
2022/01/28 08:03:29;;;;;;;15.10;5.10;;;8.50;93.20;;;;;;5033172;28;20029;-68
2022/01/28 08:05:54;;;;;;;12.02;4.70;;;8.60;92.90;;;;;;5032999;28;20024;-67
2022/01/28 08:08:21;;;;;;;16.88;6.43;;;8.60;94.00;;;;;;5032848;28;20030;-66
2022/01/28 08:10:47;;;;;;;14.40;5.68;;;8.60;93.40;;;;;;5032752;28;20478;-61
2022/01/28 08:13:13;;;;;;;13.65;5.55;;;8.70;93.20;;;;;;5033141;28;20078;-62
2022/01/28 08:15:40;;;;;;;14.20;5.10;;;8.60;93.10;;;;;;5048910;28;20029;-60
2022/01/28 08:18:06;;;;;;;15.43;6.07;;;8.70;93.20;;;;;;5052334;28;20035;-62
2022/01/28 08:20:33;;;;;;;13.15;6.47;;;8.80;93.10;;;;;;5052872;28;20057;-59
2022/01/28 08:23:00;;;;;;;13.45;6.28;;;8.90;92.90;;;;;;5052996;28;20025;-60
2022/01/28 08:25:26;;;;;;;15.57;6.18;;;8.90;92.50;;;;;;5052596;28;20029;-62
2022/01/28 08:27:53;;;;;;;9.75;4.80;;;8.90;92.40;;;;;;5052747;28;20025;-62
2022/01/28 08:30:21;;;;;;;11.65;4.63;;;8.80;93.20;;;;;;5043383;28;20135;-62
2022/01/28 08:32:47;;;;;;;12.05;5.22;;;9.00;93.90;;;;;;5031935;28;20120;-59
2022/01/28 08:35:13;;;;;;;21.17;6.90;;;9.10;93.50;;;;;;5036117;28;20033;-57
2022/01/28 08:37:39;;;;;;;17.30;7.40;;;8.90;93.10;;;;;;5036997;28;20449;-58
2022/01/28 08:40:07;;;;;;;14.77;7.05;;;8.80;93.10;;;;;;5036735;28;20474;-60
2022/01/28 08:42:32;;;;;;;17.42;6.75;;;8.90;93.00;;;;;;5036693;28;20026;-59
2022/01/28 08:44:58;;;;;;;18.55;6.75;;;8.80;93.10;;;;;;5037047;28;20086;-61
2022/01/28 08:47:24;;;;;;;19.58;6.20;;;8.70;93.40;;;;;;5036792;28;20030;-60
2022/01/28 08:49:50;;;;;;;17.92;6.95;;;8.70;93.70;;;;;;5037188;28;20037;-67
2022/01/28 08:52:15;;;;;;;16.00;6.65;;;8.80;93.50;;;;;;5039333;28;20032;-69
2022/01/28 08:54:42;;;;;;;16.02;7.07;;;8.80;93.60;;;;;;5036224;28;20026;-67
2022/01/28 08:57:08;;;;;;;16.33;7.45;;;8.80;93.60;;;;;;5036631;28;20030;-68
2022/01/28 08:59:34;;;;;;;15.98;6.18;;;8.70;93.80;;;;;;5049906;28;20505;-68
2022/01/28 09:02:00;;;;;;;12.45;6.13;;;8.70;94.00;;;;;;5055161;28;20518;-68
2022/01/28 09:04:26;;;;;;;20.40;8.10;;;8.70;94.10;;;;;;5056281;28;20025;-68
2022/01/28 09:06:51;;;;;;;15.70;6.60;;;8.70;94.00;;;;;;5054900;28;20021;-69
2022/01/28 09:09:19;;;;;;;12.07;6.57;;;8.80;94.20;;;;;;5055936;28;20025;-68
2022/01/28 09:12:04;;;;;;;14.07;5.55;;;8.80;94.10;;;;;;5056303;28;20029;-69
2022/01/28 09:14:30;;;;;;;20.63;7.53;;;8.90;94.20;;;;;;5056359;28;20025;-69
2022/01/28 09:16:56;;;;;;;14.88;7.20;;;8.90;94.20;;;;;;5055779;28;20375;-68
2022/01/28 09:19:22;;;;;;;17.85;8.50;;;8.90;94.10;;;;;;5056090;28;20037;-69
2022/01/28 09:21:48;;;;;;;21.33;8.05;;;8.80;94.30;;;;;;5056010;28;20028;-65
2022/01/28 09:24:13;;;;;;;13.68;7.13;;;8.80;94.40;;;;;;5055776;28;20082;-66
2022/01/28 09:26:39;;;;;;;14.82;7.22;;;8.80;94.60;;;;;;5055987;28;20017;-60
2022/01/28 09:29:05;;;;;;;18.00;8.68;;;8.90;94.60;;;;;;5055839;28;20033;-65
2022/01/28 09:31:30;;;;;;;14.77;6.75;;;8.90;94.60;;;;;;5055756;28;20029;-61
2022/01/28 09:33:56;;;;;;;16.02;7.00;;;8.90;94.60;;;;;;5056122;28;20378;-61
2022/01/28 09:36:22;;;;;;;23.25;8.50;;;8.90;94.70;;;;;;5055610;28;20029;-64
2022/01/28 09:38:48;;;;;;;11.45;7.32;;;9.00;94.70;;;;;;5055335;28;20028;-60
2022/01/28 09:41:15;;;;;;;19.30;8.48;;;9.00;94.80;;;;;;5055672;28;20029;-63
2022/01/28 09:43:43;;;;;;;13.88;7.72;;;9.00;94.80;;;;;;5054475;28;20033;-60
2022/01/28 09:46:09;;;;;;;10.57;5.65;;;9.00;94.90;;;;;;5054825;28;20106;-65
2022/01/28 09:48:34;;;;;;;13.13;6.80;;;9.00;94.90;;;;;;5055448;28;20075;-67
2022/01/28 09:51:02;;;;;;;13.82;6.45;;;9.10;94.90;;;;;;5055421;28;20029;-69
2022/01/28 09:53:28;;;;;;;15.25;7.78;;;9.10;94.90;;;;;;5055107;28;20032;-60
2022/01/28 09:55:54;;;;;;;27.38;12.25;;;9.10;95.10;;;;;;5055755;28;20017;-64
2022/01/28 09:58:20;;;;;;;29.08;14.32;;;9.30;94.60;;;;;;5055423;28;20029;-63
2022/01/28 10:00:46;;;;;;;26.55;13.95;;;9.20;95.20;;;;;;5055385;28;20086;-60
2022/01/28 10:03:13;;;;;;;29.25;14.70;;;9.10;95.30;;;;;;5055186;28;20466;-63
2022/01/28 10:05:50;;;;;;;30.70;15.27;;;9.20;95.60;;;;;;5055020;28;20463;-61
2022/01/28 10:08:23;;;;;;;25.65;15.15;;;9.10;95.60;;;;;;5055169;28;20009;-64
2022/01/28 10:11:16;;;;;;;29.40;16.60;;;9.10;95.70;;;;;;5055361;28;20033;-62
2022/01/28 10:13:53;;;;;;;40.30;25.67;;;9.20;95.50;;;;;;5055204;28;20025;-61
2022/01/28 10:16:23;;;;;;;30.75;16.92;;;9.20;95.60;;;;;;5055059;28;20086;-67
2022/01/28 10:18:53;;;;;;;29.55;16.77;;;9.10;96.20;;;;;;5054691;28;20037;-71
2022/01/28 10:21:30;;;;;;;39.25;17.95;;;9.00;96.50;;;;;;5054996;28;20079;-67
2022/01/28 10:24:04;;;;;;;35.95;18.02;;;8.90;96.60;;;;;;5055036;28;20040;-60
2022/01/28 10:26:36;;;;;;;39.42;19.65;;;9.00;96.50;;;;;;5054911;28;20044;-60
2022/01/28 10:29:12;;;;;;;40.50;19.30;;;9.00;97.00;;;;;;5054673;28;20549;-71
2022/01/28 10:31:47;;;;;;;31.70;15.60;;;9.00;97.20;;;;;;5054947;28;20056;-65
2022/01/28 10:34:33;;;;;;;34.10;19.67;;;9.10;96.60;;;;;;5054710;28;20013;-71
2022/01/28 10:37:09;;;;;;;39.53;19.10;;;9.20;96.40;;;;;;5054356;28;20033;-69
2022/01/28 10:39:39;;;;;;;32.10;16.77;;;9.30;96.20;;;;;;5054429;28;20394;-72
2022/01/28 10:42:05;;;;;;;33.05;16.95;;;9.30;96.20;;;;;;5054540;28;20458;-72
2022/01/28 10:44:31;;;;;;;45.10;28.67;;;9.30;96.30;;;;;;5054299;28;20363;-71
2022/01/28 10:47:03;;;;;;;31.05;18.70;;;9.40;96.30;;;;;;5054359;28;20025;-70
2022/01/28 10:49:35;;;;;;;28.77;17.23;;;9.40;96.60;;;;;;5054010;28;20462;-69
2022/01/28 10:52:06;;;;;;;32.33;16.77;;;9.40;96.80;;;;;;5054428;28;20029;-70
2022/01/28 10:54:31;;;;;;;31.25;15.73;;;9.30;96.80;;;;;;5054353;28;20017;-70
2022/01/28 10:56:59;;;;;;;27.20;15.48;;;9.30;96.80;;;;;;5052652;28;20048;-71
2022/01/28 10:59:30;;;;;;;25.77;15.13;;;9.40;96.70;;;;;;5053829;28;20037;-67
2022/01/28 11:01:56;;;;;;;25.20;14.07;;;9.30;96.90;;;;;;5054377;28;20025;-70
2022/01/28 11:04:24;;;;;;;23.05;15.35;;;9.30;97.30;;;;;;5053623;28;20025;-71
2022/01/28 11:06:51;;;;;;;26.55;14.80;;;9.20;97.60;;;;;;5052783;28;20047;-70
2022/01/28 11:09:20;;;;;;;23.25;13.57;;;9.10;97.80;;;;;;5054262;28;20378;-70
2022/01/28 11:11:46;;;;;;;24.02;13.65;;;9.20;97.80;;;;;;5054161;28;20033;-69
2022/01/28 11:14:12;;;;;;;25.33;16.52;;;9.30;97.70;;;;;;5053898;28;20055;-74
2022/01/28 11:16:39;;;;;;;25.73;18.38;;;9.30;97.30;;;;;;5053532;28;20097;-74
2022/01/28 11:19:09;;;;;;;25.05;13.90;;;9.40;97.00;;;;;;5053683;28;20044;-74
2022/01/28 11:21:46;;;;;;;20.45;13.40;;;9.50;96.60;;;;;;5054045;28;20021;-67
2022/01/28 11:24:23;;;;;;;23.58;13.45;;;9.50;97.00;;;;;;5053620;28;20028;-68
2022/01/28 11:27:07;;;;;;;23.27;13.90;;;9.50;97.20;;;;;;5038388;28;20030;-71
2022/01/28 11:29:32;;;;;;;22.85;13.52;;;9.50;97.20;;;;;;5049907;28;20025;-67
2022/01/28 11:32:17;;;;;;;25.88;15.10;;;9.40;97.30;;;;;;5053018;28;20024;-72
2022/01/28 11:35:04;;;;;;;23.10;13.20;;;9.50;97.30;;;;;;5066966;28;20032;-71
2022/01/28 11:37:31;;;;;;;22.85;14.05;;;9.50;97.10;;;;;;5049835;28;20032;-71
2022/01/28 11:40:09;;;;;;;22.45;12.82;;;9.50;97.00;;;;;;5048444;28;20471;-70
2022/01/28 11:42:34;;;;;;;27.60;12.07;;;9.60;96.60;;;;;;5042683;28;20044;-70
2022/01/28 11:45:03;;;;;;;57.65;42.08;;;9.70;96.50;;;;;;5034287;28;20390;-74
2022/01/28 11:47:35;;;;;;;10.10;6.60;;;9.80;96.30;;;;;;5049211;28;20017;-74
2022/01/28 11:50:14;;;;;;;23.15;12.32;;;10.10;96.70;;;;;;5048476;28;20029;-68
2022/01/28 11:52:41;;;;;;;16.48;6.28;;;10.40;95.70;;;;;;5052719;28;20025;-72
2022/01/28 11:55:25;;;;;;;29.95;20.50;;;10.30;95.80;;;;;;5037987;28;20036;-73
2022/01/28 11:57:52;;;;;;;34.92;21.50;;;10.40;95.40;;;;;;5034473;28;20079;-72
2022/01/28 12:00:23;;;;;;;28.20;20.10;;;10.20;95.50;;;;;;5043452;28;20029;-72
2022/01/28 12:02:51;;;;;;;25.75;17.75;;;10.00;95.80;;;;;;5049979;28;20063;-64
2022/01/28 12:05:29;;;;;;;24.38;16.08;;;10.00;96.50;;;;;;5064119;28;20377;-72
2022/01/28 12:08:03;;;;;;;26.45;21.63;;;10.00;95.90;;;;;;5044209;28;20026;-69
2022/01/28 12:10:32;;;;;;;29.30;21.50;;;10.00;95.60;;;;;;5050152;28;20048;-72
2022/01/28 12:13:00;;;;;;;25.48;20.48;;;9.90;95.60;;;;;;5036641;28;20112;-72
2022/01/28 12:15:59;;;;;;;28.02;20.92;;;9.90;95.50;;;;;;5044442;28;20025;-73
2022/01/28 12:18:45;;;;;;;20.08;14.85;;;9.70;96.10;;;;;;5041554;28;20045;-70
2022/01/28 12:21:14;;;;;;;29.17;20.10;;;9.60;97.10;;;;;;5048760;28;20041;-62
2022/01/28 12:23:40;;;;;;;25.15;18.27;;;9.70;96.30;;;;;;5039260;28;20036;-72
2022/01/28 12:26:06;;;;;;;23.17;16.40;;;10.00;96.00;;;;;;5041337;28;20033;-70
2022/01/28 12:28:32;;;;;;;27.80;21.48;;;9.90;95.70;;;;;;5045785;28;20051;-74
2022/01/28 12:31:08;;;;;;;27.02;20.35;;;9.90;95.60;;;;;;5043803;28;20029;-72
2022/01/28 12:33:38;;;;;;;26.42;19.42;;;9.90;95.60;;;;;;5032262;28;20355;-73
2022/01/28 12:36:30;;;;;;;23.98;18.20;;;9.90;95.80;;;;;;5031764;28;20022;-67
2022/01/28 12:41:40;;;;;;;23.73;19.85;;;9.90;95.80;;;;;;5031864;28;20523;-73
2022/01/28 12:44:07;;;;;;;46.83;39.25;;;9.80;96.00;;;;;;5047268;28;20044;-67
2022/01/28 12:46:35;;;;;;;30.80;21.20;;;10.00;95.60;;;;;;5050549;28;20067;-70
2022/01/28 12:49:02;;;;;;;21.30;16.33;;;10.10;95.50;;;;;;5050295;28;20475;-71
2022/01/28 12:51:28;;;;;;;39.42;26.00;;;10.10;95.50;;;;;;5051418;28;20028;-71
2022/01/28 12:53:54;;;;;;;9.63;6.00;;;10.00;95.40;;;;;;5051780;28;20373;-73
2022/01/28 12:56:36;;;;;;;19.10;12.48;;;10.50;95.40;;;;;;5037723;28;20356;-73
2022/01/28 12:59:03;;;;;;;40.53;25.00;;;10.80;94.20;;;;;;5031937;28;20479;-72
2022/01/28 13:01:29;;;;;;;32.55;23.58;;;10.50;94.40;;;;;;5031464;28;20072;-69
2022/01/28 13:04:10;;;;;;;23.75;17.35;;;10.20;95.10;;;;;;5032112;28;20026;-72
2022/01/28 13:09:18;;;;;;;27.55;18.63;;;10.30;94.70;;;;;;5031910;28;20037;-69
2022/01/28 13:11:55;;;;;;;32.97;24.98;;;10.10;95.60;;;;;;5031980;28;20025;-64
2022/01/28 13:14:26;;;;;;;33.85;24.45;;;9.90;95.50;;;;;;5031296;28;20030;-72
2022/01/28 13:16:53;;;;;;;27.70;22.87;;;9.90;95.40;;;;;;5038693;28;20099;-73
2022/01/28 13:19:19;;;;;;;34.25;24.98;;;10.00;95.00;;;;;;5042471;28;20509;-72
2022/01/28 13:21:47;;;;;;;14.90;11.25;;;10.00;95.20;;;;;;5035851;28;20025;-73
2022/01/28 13:24:15;;;;;;;27.83;21.08;;;10.00;95.90;;;;;;5036203;28;20021;-73
2022/01/28 13:26:57;;;;;;;16.75;11.15;;;10.20;94.80;;;;;;5035231;28;20034;-69
2022/01/28 13:29:45;;;;;;;29.27;21.58;;;10.20;94.90;;;;;;5035024;28;20032;-73
2022/01/28 13:32:15;;;;;;;33.17;24.05;;;10.20;94.50;;;;;;5034770;28;20025;-73
2022/01/28 13:34:48;;;;;;;24.58;18.17;;;10.10;94.50;;;;;;5035207;28;20030;-72
2022/01/28 13:37:37;;;;;;;25.42;17.08;;;10.10;94.90;;;;;;5038623;28;20029;-64
2022/01/28 13:40:05;;;;;;;29.33;21.35;;;10.20;94.90;;;;;;5037599;28;20121;-74
2022/01/28 13:42:30;;;;;;;34.55;22.13;;;10.30;94.40;;;;;;5035599;28;20045;-66
2022/01/28 13:44:58;;;;;;;35.67;25.98;;;10.20;94.50;;;;;;5043538;28;20462;-74
2022/01/28 13:47:25;;;;;;;35.95;25.73;;;10.20;94.70;;;;;;5037867;28;20042;-62
2022/01/28 13:49:58;;;;;;;30.85;19.55;;;10.20;94.80;;;;;;5054436;28;20420;-62
2022/01/28 13:52:41;;;;;;;32.55;21.88;;;10.20;94.70;;;;;;5054912;28;20375;-64
2022/01/28 13:55:36;;;;;;;36.95;25.75;;;10.30;94.50;;;;;;5037477;28;20493;-70
2022/01/28 13:58:05;;;;;;;17.70;11.50;;;10.30;94.60;;;;;;5053469;28;20478;-63
2022/01/28 14:00:49;;;;;;;46.72;30.02;;;10.40;94.40;;;;;;5048466;28;20025;-63
2022/01/28 14:03:14;;;;;;;50.35;30.40;;;10.40;94.40;;;;;;5034477;28;20056;-60
2022/01/28 14:06:01;;;;;;;48.45;31.67;;;10.30;94.60;;;;;;5044818;28;20056;-61
2022/01/28 14:08:48;;;;;;;39.70;24.90;;;10.20;95.20;;;;;;5054112;28;20108;-73
2022/01/28 14:11:40;;;;;;;15.70;10.77;;;10.10;95.20;;;;;;5051854;28;20074;-67
2022/01/28 14:14:16;;;;;;;8.00;6.40;;;10.50;94.00;;;;;;5037746;28;20129;-67
2022/01/28 14:16:44;;;;;;;11.30;6.70;;;10.90;93.20;;;;;;5034939;28;20029;-66
2022/01/28 14:19:10;;;;;;;34.80;22.30;;;11.10;93.20;;;;;;5046513;28;20083;-68
2022/01/28 14:21:41;;;;;;;15.55;9.95;;;11.10;93.00;;;;;;5054229;28;20025;-65
2022/01/28 14:24:08;;;;;;;18.85;12.10;;;11.10;92.70;;;;;;5053547;28;20107;-65
2022/01/28 14:26:43;;;;;;;16.75;9.93;;;11.10;92.60;;;;;;5034243;28;20493;-66